createdAt,value
2018-09-14T21:30:19.806Z,5.70
2018-09-14T21:31:19.744Z,6.50
2018-09-14T21:33:12.687Z,7.60
2018-09-14T21:34:12.660Z,7.40
2018-09-14T21:36:05.562Z,7.50
2018-09-14T21:37:05.565Z,7.40
2018-09-14T21:38:58.526Z,7.60
2018-09-14T21:39:58.507Z,7.50
2018-09-14T21:46:49.788Z,14.10
2018-09-14T21:47:49.777Z,15.90
2018-09-14T21:49:42.694Z,16.50
2018-09-14T21:50:42.687Z,17.10
2018-09-14T21:52:35.627Z,16.20
2018-09-14T21:53:35.631Z,16.00
2018-09-14T21:55:28.555Z,15.40
2018-09-14T21:56:28.527Z,14.90
2018-09-14T21:58:21.430Z,16.90
2018-09-14T21:59:21.414Z,17.00
2018-09-14T22:01:14.341Z,17.00
2018-09-14T22:02:14.341Z,16.80
2018-09-14T22:04:07.283Z,16.10
2018-09-14T22:05:07.261Z,17.70
2018-09-14T22:07:00.205Z,24.80
2018-09-14T22:08:00.204Z,30.00
2018-09-14T22:09:53.145Z,45.10
2018-09-14T22:10:53.106Z,53.80
2018-09-14T22:12:46.064Z,60.40
2018-09-14T22:13:46.031Z,61.00
2018-09-14T22:15:38.956Z,51.50
2018-09-14T22:16:38.957Z,52.10
2018-09-14T22:18:31.908Z,54.90
2018-09-14T22:19:31.877Z,41.40
2018-09-14T22:21:24.834Z,35.50
2018-09-14T22:22:24.799Z,37.10
2018-09-14T22:24:17.721Z,37.60
2018-09-14T22:25:17.723Z,37.60
2018-09-14T22:27:10.693Z,33.80
2018-09-14T22:28:10.656Z,35.20
2018-09-14T22:30:03.611Z,30.10
2018-09-14T22:31:03.609Z,31.50
2018-09-14T22:32:56.565Z,28.00
2018-09-14T22:33:56.535Z,30.10
2018-09-14T22:35:49.458Z,26.20
2018-09-14T22:36:49.453Z,26.60
2018-09-14T22:38:42.403Z,24.60
2018-09-14T22:39:42.383Z,24.00
2018-09-14T22:41:35.297Z,21.60
2018-09-14T22:42:35.272Z,23.40
2018-09-14T22:44:28.222Z,80.20
2018-09-14T22:45:28.196Z,54.60
2018-09-14T22:47:21.136Z,112.90
2018-09-14T22:48:21.114Z,54.30
2018-09-14T22:50:14.035Z,91.70
2018-09-14T22:51:14.037Z,114.20
2018-09-14T22:53:06.949Z,111.50
2018-09-14T22:54:06.927Z,112.70
2018-09-14T22:55:59.846Z,137.40
2018-09-14T22:56:59.846Z,103.40
2018-09-14T22:58:52.797Z,102.90
2018-09-14T22:59:52.770Z,106.20
2018-09-14T23:01:45.728Z,93.70
2018-09-14T23:02:45.712Z,98.60
2018-09-14T23:04:38.627Z,86.70
2018-09-14T23:05:38.625Z,91.30
2018-09-14T23:07:31.570Z,80.80
2018-09-14T23:08:31.549Z,79.90
2018-09-14T23:10:24.468Z,71.30
2018-09-14T23:11:24.477Z,69.00
2018-09-14T23:13:17.417Z,64.50
2018-09-14T23:14:17.395Z,63.80
2018-09-14T23:16:10.346Z,54.30
2018-09-14T23:17:10.322Z,56.60
2018-09-14T23:19:03.258Z,53.40
2018-09-14T23:20:03.258Z,50.90
2018-09-14T23:21:56.201Z,44.70
2018-09-14T23:22:56.183Z,46.20
2018-09-14T23:24:49.169Z,44.80
2018-09-14T23:25:49.167Z,44.30
2018-09-14T23:27:42.117Z,43.40
2018-09-14T23:28:42.139Z,43.30
2018-09-14T23:30:35.023Z,42.50
2018-09-14T23:31:35.041Z,42.40
2018-09-14T23:33:27.995Z,41.10
2018-09-14T23:34:27.973Z,40.70
2018-09-14T23:36:20.918Z,41.20
2018-09-14T23:37:20.902Z,39.40
2018-09-14T23:39:13.831Z,38.40
2018-09-14T23:40:13.824Z,39.20
2018-09-14T23:42:06.796Z,37.40
2018-09-14T23:43:06.761Z,38.10
2018-09-14T23:44:59.711Z,37.00
2018-09-14T23:45:59.702Z,37.20
2018-09-14T23:47:52.616Z,36.80
2018-09-14T23:48:52.590Z,36.60
2018-09-14T23:50:45.536Z,37.10
2018-09-14T23:51:45.540Z,36.00
2018-09-14T23:53:38.437Z,35.80
2018-09-14T23:54:38.443Z,35.10
2018-09-14T23:56:32.415Z,35.00
2018-09-14T23:57:32.390Z,35.50
2018-09-14T23:59:25.316Z,33.90
